createdAt,value
2022-08-03T00:01:59.658Z,12.82
2022-08-03T00:07:00.087Z,12.81
2022-08-03T00:12:00.727Z,12.80
2022-08-03T00:17:01.312Z,12.80
2022-08-03T00:22:02.080Z,12.80
2022-08-03T00:27:02.929Z,12.79
2022-08-03T00:32:03.605Z,12.80
2022-08-03T00:37:04.408Z,12.79
2022-08-03T00:42:07.634Z,12.78
2022-08-03T00:47:08.178Z,12.78
2022-08-03T00:52:09.622Z,12.79
2022-08-03T00:57:09.617Z,12.78
2022-08-03T01:02:10.319Z,12.78
2022-08-03T01:07:11.224Z,12.77
2022-08-03T01:12:11.813Z,12.78
2022-08-03T01:17:12.550Z,12.77
2022-08-03T01:22:16.209Z,12.76
2022-08-03T01:27:16.821Z,12.76
2022-08-03T01:32:51.844Z,12.76
2022-08-03T01:37:18.268Z,12.74
2022-08-03T01:42:19.034Z,12.74
2022-08-03T01:47:19.751Z,12.74
2022-08-03T01:52:20.597Z,12.74
2022-08-03T01:57:21.132Z,12.75
2022-08-03T02:02:32.539Z,12.73
2022-08-03T02:07:25.377Z,12.73
2022-08-03T02:12:26.159Z,12.72
2022-08-03T02:17:38.862Z,12.72
2022-08-03T02:22:27.641Z,12.72
2022-08-03T02:27:28.452Z,12.71
2022-08-03T02:32:29.039Z,12.71
2022-08-03T02:37:29.801Z,12.70
2022-08-03T02:42:33.341Z,12.69
2022-08-03T02:47:52.159Z,12.71
2022-08-03T02:52:34.667Z,12.69
2022-08-03T02:57:35.443Z,12.71
2022-08-03T03:02:36.140Z,12.70
2022-08-03T03:07:38.439Z,12.70
2022-08-03T03:12:37.695Z,12.69
2022-08-03T03:17:38.298Z,12.69
2022-08-03T03:22:43.545Z,12.69
2022-08-03T03:27:42.613Z,12.68
2022-08-03T03:32:43.381Z,12.68
2022-08-03T03:37:43.991Z,12.68
2022-08-03T03:42:54.424Z,12.69
2022-08-03T03:47:45.561Z,12.69
2022-08-03T03:52:46.083Z,12.71
2022-08-03T03:57:49.542Z,12.71
2022-08-03T04:02:50.236Z,12.71
2022-08-03T04:07:51.112Z,12.70
2022-08-03T04:12:51.718Z,12.71
2022-08-03T04:17:52.443Z,12.72
2022-08-03T04:22:53.208Z,12.75
2022-08-03T04:28:07.878Z,12.82
2022-08-03T04:32:54.713Z,12.87
2022-08-03T04:37:58.128Z,12.87
2022-08-03T04:42:58.870Z,12.91
2022-08-03T04:47:59.772Z,12.87
2022-08-03T04:53:00.503Z,12.86
2022-08-03T04:58:01.158Z,12.86
2022-08-03T05:03:01.974Z,12.86
2022-08-03T05:08:03.433Z,12.87
2022-08-03T05:13:03.426Z,12.88
2022-08-03T05:18:09.569Z,12.88
2022-08-03T05:23:07.689Z,12.89
2022-08-03T05:28:08.428Z,12.88
2022-08-03T05:33:09.186Z,12.88
2022-08-03T05:38:09.986Z,12.90
2022-08-03T05:43:10.702Z,12.90
2022-08-03T05:48:11.364Z,12.94
2022-08-03T05:53:14.918Z,12.91
2022-08-03T05:58:20.276Z,12.91
2022-08-03T06:03:16.190Z,12.93
2022-08-03T06:08:21.690Z,12.93
2022-08-03T06:13:17.519Z,12.94
2022-08-03T06:18:18.709Z,12.97
2022-08-03T06:23:19.091Z,12.97
2022-08-03T06:28:42.841Z,13.00
2022-08-03T06:33:23.148Z,12.99
2022-08-03T06:38:24.219Z,13.00
2022-08-03T06:43:24.419Z,13.00
2022-08-03T06:48:25.422Z,13.04
2022-08-03T06:53:26.010Z,13.04
2022-08-03T06:58:39.157Z,13.04
2022-08-03T07:03:30.480Z,13.03
2022-08-03T07:08:33.232Z,13.08
2022-08-03T07:13:31.671Z,13.09
2022-08-03T07:18:32.483Z,13.09
2022-08-03T07:23:33.131Z,13.12
2022-08-03T07:28:46.195Z,13.10
2022-08-03T07:33:37.274Z,13.10
2022-08-03T07:38:38.027Z,13.12
2022-08-03T07:43:38.748Z,13.14
2022-08-03T07:48:39.622Z,13.15
2022-08-03T07:53:41.388Z,13.16
2022-08-03T07:58:43.828Z,13.19
2022-08-03T08:03:52.530Z,13.17
2022-08-03T08:08:45.199Z,13.19
2022-08-03T08:13:55.678Z,13.19
2022-08-03T08:18:46.735Z,13.19
2022-08-03T08:23:54.997Z,13.20
2022-08-03T08:28:51.133Z,13.20
2022-08-03T08:34:04.507Z,13.24
2022-08-03T08:38:52.427Z,13.23
2022-08-03T08:43:55.552Z,13.21
2022-08-03T08:48:56.663Z,13.18
2022-08-03T08:53:57.290Z,13.19
2022-08-03T08:58:57.875Z,13.20
2022-08-03T09:03:58.455Z,13.19
2022-08-03T09:08:59.104Z,13.19
2022-08-03T09:14:02.523Z,13.20
2022-08-03T09:19:03.227Z,13.20
2022-08-03T09:24:05.065Z,13.20
2022-08-03T09:29:07.086Z,13.19
2022-08-03T09:34:05.233Z,13.19
2022-08-03T09:39:08.590Z,13.19
2022-08-03T09:44:09.340Z,13.19
2022-08-03T09:49:11.457Z,13.19
2022-08-03T09:54:16.417Z,13.20
2022-08-03T09:59:11.126Z,13.19
2022-08-03T10:04:14.565Z,13.20
2022-08-03T10:09:15.320Z,13.18
2022-08-03T10:14:15.909Z,13.19
2022-08-03T10:19:16.703Z,13.18
2022-08-03T10:24:17.383Z,13.19
2022-08-03T10:29:20.747Z,13.19
2022-08-03T10:34:21.434Z,13.18
2022-08-03T10:39:22.068Z,13.19
2022-08-03T10:44:22.837Z,13.19
2022-08-03T10:49:31.856Z,13.20
2022-08-03T10:54:26.806Z,13.21
2022-08-03T10:59:27.645Z,13.23
2022-08-03T11:04:28.073Z,13.20
2022-08-03T11:09:28.620Z,13.20
2022-08-03T11:14:29.318Z,13.20
2022-08-03T11:19:32.887Z,13.19
2022-08-03T11:24:33.775Z,13.19
2022-08-03T11:29:34.250Z,13.19
2022-08-03T11:35:43.772Z,13.20
2022-08-03T11:41:42.818Z,13.21
2022-08-03T11:46:39.266Z,13.28
2022-08-03T11:51:45.919Z,13.23
2022-08-03T11:56:40.157Z,13.28
2022-08-03T12:01:41.785Z,13.27
2022-08-03T12:06:47.246Z,13.28
2022-08-03T12:11:50.767Z,13.28
2022-08-03T12:16:45.102Z,13.27
2022-08-03T12:21:56.517Z,13.28
2022-08-03T12:26:52.173Z,13.28
2022-08-03T12:31:55.882Z,13.29
2022-08-03T12:36:50.286Z,13.34
2022-08-03T12:41:51.365Z,13.33
2022-08-03T12:46:51.403Z,13.33
2022-08-03T12:51:54.672Z,13.36
2022-08-03T12:57:00.792Z,13.41
2022-08-03T13:01:56.202Z,13.40
2022-08-03T13:07:02.855Z,13.39
2022-08-03T13:12:09.551Z,13.38
2022-08-03T13:17:00.550Z,13.37
2022-08-03T13:22:03.400Z,13.30
2022-08-03T13:27:02.844Z,13.29
2022-08-03T13:32:02.500Z,13.27
2022-08-03T13:37:09.199Z,13.28
2022-08-03T13:42:06.433Z,13.28
2022-08-03T13:47:07.144Z,13.30
2022-08-03T13:52:07.915Z,13.33
2022-08-03T13:58:01.478Z,13.28
2022-08-03T14:02:11.829Z,13.27
2022-08-03T14:07:12.410Z,13.28
2022-08-03T14:12:17.751Z,13.27
2022-08-03T14:17:16.723Z,13.29
2022-08-03T14:22:17.164Z,13.31
2022-08-03T14:27:17.813Z,13.28
2022-08-03T14:32:18.395Z,13.27
2022-08-03T14:37:22.395Z,13.28
2022-08-03T14:42:22.427Z,13.28
2022-08-03T14:47:22.940Z,13.28
2022-08-03T14:52:23.661Z,13.30
2022-08-03T14:57:27.106Z,13.33
2022-08-03T15:02:27.750Z,13.33
2022-08-03T15:07:28.376Z,13.34
2022-08-03T15:12:29.004Z,13.30
2022-08-03T15:17:30.019Z,13.31
2022-08-03T15:21:46.477Z,13.28
2022-08-03T15:26:41.287Z,13.28
2022-08-03T15:31:38.824Z,13.27
2022-08-03T15:36:46.187Z,13.27
2022-08-03T15:46:42.570Z,13.27
2022-08-03T15:51:47.980Z,13.22
2022-08-03T15:56:50.955Z,13.18
2022-08-03T16:01:46.660Z,13.21
2022-08-03T16:06:47.202Z,13.28
2022-08-03T16:11:47.841Z,13.20
2022-08-03T16:16:50.885Z,13.21
2022-08-03T16:21:51.588Z,13.29
2022-08-03T16:26:52.254Z,13.34
2022-08-03T16:31:52.965Z,13.34
2022-08-03T16:36:56.116Z,13.38
2022-08-03T16:42:00.849Z,13.38
2022-08-03T16:46:57.538Z,13.32
2022-08-03T16:51:58.139Z,13.31
2022-08-03T16:57:10.991Z,13.34
2022-08-03T17:02:04.383Z,13.34
2022-08-03T17:07:02.985Z,13.36
2022-08-03T17:12:03.479Z,13.39
2022-08-03T17:17:04.338Z,13.37
2022-08-03T17:22:04.987Z,13.29
2022-08-03T17:27:08.758Z,13.21
2022-08-03T17:32:09.740Z,13.10
2022-08-03T17:37:06.867Z,13.07
2022-08-03T17:42:29.022Z,13.04
2022-08-03T17:47:10.843Z,13.01
2022-08-03T17:52:11.420Z,13.01
2022-08-03T17:57:21.793Z,13.00
2022-08-03T18:02:23.744Z,13.00
2022-08-03T18:07:16.027Z,12.98
2022-08-03T18:12:16.898Z,12.96
2022-08-03T18:22:02.386Z,12.91
2022-08-03T18:26:43.170Z,12.91
2022-08-03T18:32:00.419Z,12.87
2022-08-03T18:36:47.090Z,12.89
2022-08-03T18:41:47.744Z,12.89
2022-08-03T18:46:48.542Z,12.87
2022-08-03T18:51:51.877Z,12.88
2022-08-03T18:56:59.706Z,12.88
2022-08-03T19:01:58.789Z,12.86
2022-08-03T19:06:53.762Z,12.84
2022-08-03T19:12:11.398Z,12.85
2022-08-03T19:16:57.683Z,12.83
2022-08-03T19:21:58.376Z,12.82
2022-08-03T19:26:59.022Z,12.82
2022-08-03T19:32:00.007Z,12.82
2022-08-03T19:37:02.898Z,12.81
2022-08-03T19:42:13.547Z,12.81
2022-08-03T19:47:04.274Z,12.80
2022-08-03T19:52:04.825Z,12.81
2022-08-03T19:57:08.233Z,12.79
2022-08-03T20:02:08.978Z,12.81
2022-08-03T20:07:09.530Z,12.78
2022-08-03T20:12:11.615Z,12.78
2022-08-03T20:17:13.578Z,12.77
2022-08-03T20:22:14.647Z,12.76
2022-08-03T20:27:16.823Z,12.78
2022-08-03T20:32:15.677Z,12.74
2022-08-03T20:37:16.156Z,12.74
2022-08-03T20:42:21.342Z,12.74
2022-08-03T20:47:23.896Z,12.74
2022-08-03T20:52:21.256Z,12.74
2022-08-03T20:57:21.710Z,12.73
2022-08-03T21:02:29.306Z,12.70
2022-08-03T21:07:45.756Z,12.72
2022-08-03T21:12:26.782Z,12.70
2022-08-03T21:17:39.805Z,12.69
2022-08-03T21:22:27.583Z,12.69
2022-08-03T21:27:28.216Z,12.69
2022-08-03T21:32:32.303Z,12.70
2022-08-03T21:37:32.367Z,12.68
2022-08-03T21:42:39.545Z,12.67
2022-08-03T21:47:38.958Z,12.68
2022-08-03T21:52:39.832Z,12.68
2022-08-03T21:57:40.375Z,12.67
2022-08-03T22:02:42.713Z,12.67
2022-08-03T22:07:44.468Z,12.68
2022-08-03T22:12:45.130Z,12.67
2022-08-03T22:17:53.590Z,12.66
2022-08-03T22:22:53.668Z,12.69
2022-08-03T22:27:47.255Z,12.66
2022-08-03T22:32:50.782Z,12.66
2022-08-03T22:37:51.096Z,12.69
2022-08-03T22:42:52.014Z,12.66
2022-08-03T22:47:52.573Z,12.65
2022-08-03T22:52:53.167Z,12.65
2022-08-03T22:57:56.667Z,12.66
2022-08-03T23:02:57.423Z,12.65
2022-08-03T23:07:57.920Z,12.65
2022-08-03T23:12:58.563Z,12.65
2022-08-03T23:18:06.197Z,12.66
2022-08-03T23:23:04.999Z,12.66
2022-08-03T23:28:10.984Z,12.65
2022-08-03T23:38:22.466Z,12.66
2022-08-03T23:43:08.379Z,12.65
2022-08-03T23:48:08.178Z,12.65
2022-08-03T23:53:12.101Z,12.64
2022-08-03T23:58:12.864Z,12.64
